createdAt,value
2023-01-26T00:00:06.780Z,-1.82
2023-01-26T00:05:09.241Z,-1.94
2023-01-26T00:10:11.909Z,-1.79
2023-01-26T00:15:14.427Z,-1.57
2023-01-26T00:20:16.761Z,-1.51
2023-01-26T00:25:19.218Z,-1.57
2023-01-26T00:30:21.609Z,-1.69
2023-01-26T00:35:24.102Z,-1.68
2023-01-26T00:40:26.558Z,-1.58
2023-01-26T00:45:28.941Z,-1.57
2023-01-26T00:50:31.317Z,-1.64
2023-01-26T00:55:33.673Z,-1.65
2023-01-26T01:00:36.196Z,-1.61
2023-01-26T01:05:38.583Z,-1.78
2023-01-26T01:10:40.983Z,-1.87
2023-01-26T01:15:43.376Z,-1.77
2023-01-26T01:20:45.668Z,-1.67
2023-01-26T01:25:48.040Z,-1.49
2023-01-26T01:30:50.462Z,-1.57
2023-01-26T01:35:53.164Z,-1.43
2023-01-26T01:40:55.566Z,-1.45
2023-01-26T01:45:57.884Z,-1.67
2023-01-26T01:51:00.280Z,-1.85
2023-01-26T01:56:02.682Z,-1.88
2023-01-26T02:01:05.066Z,-1.84
2023-01-26T02:06:07.468Z,-1.94
2023-01-26T02:11:09.845Z,-2.13
2023-01-26T02:16:12.287Z,-1.96
2023-01-26T02:21:14.730Z,-1.86
2023-01-26T02:26:17.032Z,-2.08
2023-01-26T02:31:19.446Z,-2.09
2023-01-26T02:36:21.978Z,-1.94
2023-01-26T02:41:41.975Z,-1.96
2023-01-26T02:46:44.392Z,-1.81
2023-01-26T02:51:46.729Z,-1.97
2023-01-26T02:56:49.157Z,-2.04
2023-01-26T03:01:51.590Z,-1.97
2023-01-26T03:06:53.937Z,-1.87
2023-01-26T03:11:56.318Z,-1.95
2023-01-26T03:16:58.604Z,-2.04
2023-01-26T03:22:18.540Z,-1.95
2023-01-26T03:27:29.901Z,-1.95
2023-01-26T03:32:32.212Z,-1.80
2023-01-26T03:37:36.987Z,-1.71
2023-01-26T03:42:56.920Z,-1.81
2023-01-26T03:48:16.971Z,-1.68
2023-01-26T03:53:36.895Z,-1.88
2023-01-26T03:58:39.214Z,-1.71
2023-01-26T04:03:59.022Z,-1.74
2023-01-26T04:09:01.395Z,-1.76
2023-01-26T04:14:21.231Z,-1.79
2023-01-26T04:19:41.308Z,-1.99
2023-01-26T04:24:43.693Z,-2.17
2023-01-26T04:29:46.038Z,-2.04
2023-01-26T04:34:48.316Z,-1.98
2023-01-26T04:39:50.660Z,-2.01
2023-01-26T04:44:52.955Z,-1.86
2023-01-26T04:49:55.251Z,-1.90
2023-01-26T04:54:57.582Z,-1.80
2023-01-26T04:59:59.931Z,-1.97
2023-01-26T05:05:02.199Z,-2.08
2023-01-26T05:10:04.678Z,-2.05
2023-01-26T05:15:07.036Z,-2.03
2023-01-26T05:20:09.457Z,-1.89
2023-01-26T05:25:11.966Z,-1.75
2023-01-26T05:30:14.929Z,-1.80
2023-01-26T05:35:17.547Z,-1.77
2023-01-26T05:40:19.885Z,-1.87
2023-01-26T05:45:22.268Z,-1.83
2023-01-26T05:50:24.584Z,-1.78
2023-01-26T05:55:26.903Z,-1.82
2023-01-26T06:00:29.238Z,-1.96
2023-01-26T06:05:31.506Z,-1.95
2023-01-26T06:10:34.842Z,-2.02
2023-01-26T06:15:37.133Z,-2.13
2023-01-26T06:20:39.674Z,-2.01
2023-01-26T06:25:42.130Z,-2.02
2023-01-26T06:30:44.887Z,-2.18
2023-01-26T06:35:47.354Z,-2.11
2023-01-26T06:40:50.883Z,-2.21
2023-01-26T06:45:53.305Z,-2.19
2023-01-26T06:50:55.818Z,-2.00
2023-01-26T06:55:58.560Z,-1.98
2023-01-26T07:01:00.942Z,-2.02
2023-01-26T07:06:03.425Z,-2.02
2023-01-26T07:11:08.011Z,-1.95
2023-01-26T07:16:11.532Z,-1.95
2023-01-26T07:21:13.960Z,-2.13
2023-01-26T07:26:16.529Z,-2.17
2023-01-26T07:31:19.032Z,-2.01
2023-01-26T07:36:21.931Z,-1.94
2023-01-26T07:41:24.305Z,-1.91
2023-01-26T07:46:26.965Z,-1.97
2023-01-26T07:51:29.503Z,-1.89
2023-01-26T07:56:31.881Z,-1.98
2023-01-26T08:01:34.334Z,-1.84
2023-01-26T08:06:36.753Z,-1.82
2023-01-26T08:11:39.474Z,-1.81
2023-01-26T08:16:41.870Z,-1.80
2023-01-26T08:21:44.182Z,-1.70
2023-01-26T08:26:46.504Z,-1.68
2023-01-26T08:31:48.838Z,-1.66
2023-01-26T08:36:51.156Z,-1.55
2023-01-26T08:41:53.521Z,-1.62
2023-01-26T08:46:55.808Z,-1.68
2023-01-26T08:51:58.106Z,-1.47
2023-01-26T08:57:00.421Z,-1.30
2023-01-26T09:02:02.861Z,-1.45
2023-01-26T09:07:05.812Z,-1.47
2023-01-26T09:12:08.483Z,-1.33
2023-01-26T09:17:10.896Z,-1.40
2023-01-26T09:22:13.222Z,-1.40
2023-01-26T09:27:15.577Z,-1.51
2023-01-26T09:32:18.060Z,-1.24
2023-01-26T09:37:20.616Z,-1.20
2023-01-26T09:42:23.277Z,-1.18
2023-01-26T09:47:26.975Z,-1.34
2023-01-26T09:52:29.304Z,-1.58
2023-01-26T09:57:31.632Z,-1.32
2023-01-26T10:02:34.155Z,-1.33
2023-01-26T10:07:36.519Z,-1.31
2023-01-26T10:12:38.859Z,-1.20
2023-01-26T10:17:41.184Z,-1.23
2023-01-26T10:22:43.505Z,-1.50
2023-01-26T10:27:46.693Z,-1.54
2023-01-26T10:32:49.062Z,-1.52
2023-01-26T10:37:52.782Z,-1.42
2023-01-26T10:42:55.146Z,-1.33
2023-01-26T10:47:57.472Z,-1.15
2023-01-26T10:52:59.819Z,-1.19
2023-01-26T10:58:02.184Z,-1.05
2023-01-26T11:03:04.637Z,-1.21
2023-01-26T11:08:08.728Z,-1.22
2023-01-26T11:13:11.267Z,-1.02
2023-01-26T11:18:13.545Z,-0.97
2023-01-26T11:23:15.937Z,-0.84
2023-01-26T11:28:18.480Z,-0.79
2023-01-26T11:33:20.942Z,-0.84
2023-01-26T11:38:23.272Z,-0.84
2023-01-26T11:43:25.688Z,-1.22
2023-01-26T11:48:28.674Z,-1.15
2023-01-26T11:53:30.950Z,-1.15
2023-01-26T11:58:33.312Z,-1.23
2023-01-26T12:03:35.823Z,-1.22
2023-01-26T12:08:39.552Z,-1.34
2023-01-26T12:13:42.261Z,-1.49
2023-01-26T12:18:55.728Z,-1.39
2023-01-26T12:24:02.338Z,-1.36
2023-01-26T12:29:09.237Z,-1.27
2023-01-26T12:34:11.935Z,-1.06
2023-01-26T12:39:14.468Z,-0.91
2023-01-26T12:44:17.073Z,-1.30
2023-01-26T12:49:19.982Z,-1.50
2023-01-26T12:54:22.389Z,-1.40
2023-01-26T12:59:47.311Z,-1.52
2023-01-26T13:04:49.125Z,-1.51
2023-01-26T13:09:51.947Z,-1.57
2023-01-26T13:14:54.412Z,-1.72
2023-01-26T13:19:59.769Z,-1.89
2023-01-26T13:25:02.581Z,-1.69
2023-01-26T13:30:05.206Z,-1.45
2023-01-26T13:35:07.702Z,-1.43
2023-01-26T13:40:10.415Z,-1.25
2023-01-26T13:45:13.401Z,-1.25
2023-01-26T13:50:15.855Z,-1.40
2023-01-26T13:55:18.205Z,-1.29
2023-01-26T14:00:20.546Z,-1.03
2023-01-26T14:05:23.252Z,-1.19
2023-01-26T14:10:25.710Z,-1.52
2023-01-26T14:15:28.678Z,-1.38
2023-01-26T14:20:31.075Z,-1.36
2023-01-26T14:25:33.497Z,-1.20
2023-01-26T14:30:36.153Z,-1.23
2023-01-26T14:35:38.458Z,-1.17
2023-01-26T14:40:40.869Z,-1.09
2023-01-26T14:45:43.425Z,-1.07
2023-01-26T14:50:45.811Z,-1.07
2023-01-26T14:55:48.367Z,-1.10
2023-01-26T15:00:50.889Z,-1.09
2023-01-26T15:05:53.427Z,-1.04
2023-01-26T15:11:16.201Z,-1.14
2023-01-26T15:16:18.741Z,-1.36
2023-01-26T15:21:21.560Z,-1.45
2023-01-26T15:26:23.893Z,-1.28
2023-01-26T15:31:26.288Z,-1.17
2023-01-26T15:36:28.834Z,-1.22
2023-01-26T15:41:31.558Z,-1.33
2023-01-26T15:46:34.179Z,-1.39
2023-01-26T15:51:36.501Z,-1.47
2023-01-26T15:56:39.035Z,-1.43
2023-01-26T16:01:41.454Z,-1.45
2023-01-26T16:06:43.757Z,-1.62
2023-01-26T16:11:46.018Z,-1.52
2023-01-26T16:16:48.493Z,-1.70
2023-01-26T16:21:51.033Z,-1.58
2023-01-26T16:26:54.750Z,-1.61
2023-01-26T16:31:57.143Z,-1.69
2023-01-26T16:36:59.665Z,-1.63
2023-01-26T16:42:01.954Z,-1.60
2023-01-26T16:47:04.310Z,-1.51
2023-01-26T16:52:06.639Z,-1.58
2023-01-26T16:57:08.988Z,-1.46
2023-01-26T17:02:11.411Z,-1.64
2023-01-26T17:07:13.784Z,-1.58
2023-01-26T17:12:16.234Z,-1.61
2023-01-26T17:17:18.622Z,-1.66
2023-01-26T17:22:21.125Z,-1.69
2023-01-26T17:27:23.924Z,-1.56
2023-01-26T17:32:26.284Z,-1.51
2023-01-26T17:37:29.230Z,-1.49
2023-01-26T17:42:34.983Z,-1.52
2023-01-26T17:47:39.725Z,-1.55
2023-01-26T17:52:42.198Z,-1.61
2023-01-26T17:57:44.608Z,-1.57
2023-01-26T18:02:46.916Z,-1.63
2023-01-26T18:07:49.392Z,-1.44
2023-01-26T18:12:51.742Z,-1.40
2023-01-26T18:17:54.071Z,-1.32
2023-01-26T18:22:56.753Z,-1.33
2023-01-26T18:27:59.056Z,-1.44
2023-01-26T18:33:01.553Z,-1.49
2023-01-26T18:38:03.932Z,-1.47
2023-01-26T18:43:06.320Z,-1.42
2023-01-26T18:48:08.788Z,-1.40
2023-01-26T18:53:11.259Z,-1.39
2023-01-26T18:58:13.542Z,-1.42
2023-01-26T19:03:17.492Z,-1.48
2023-01-26T19:08:22.620Z,-1.47
2023-01-26T19:13:25.285Z,-1.40
2023-01-26T19:18:28.310Z,-1.32
2023-01-26T19:23:30.626Z,-1.32
2023-01-26T19:28:33.154Z,-1.37
2023-01-26T19:33:35.459Z,-1.42
2023-01-26T19:38:39.344Z,-1.38
2023-01-26T19:43:41.929Z,-1.25
2023-01-26T19:48:44.538Z,-1.29
2023-01-26T19:53:46.966Z,-1.25
2023-01-26T19:58:49.307Z,-1.25
2023-01-26T20:03:51.687Z,-1.15
2023-01-26T20:08:54.175Z,-1.16
2023-01-26T20:13:56.894Z,-1.16
2023-01-26T20:18:59.731Z,-1.33
2023-01-26T20:24:06.810Z,-1.39
2023-01-26T20:29:09.575Z,-1.44
2023-01-26T20:34:12.121Z,-1.64
2023-01-26T20:39:14.525Z,-1.61
2023-01-26T20:44:17.352Z,-1.52
2023-01-26T20:49:20.414Z,-1.48
2023-01-26T20:54:23.227Z,-1.45
2023-01-26T20:59:25.731Z,-1.54
2023-01-26T21:04:30.769Z,-1.45
2023-01-26T21:09:33.267Z,-1.49
2023-01-26T21:14:35.646Z,-1.47
2023-01-26T21:19:38.265Z,-1.42
2023-01-26T21:24:40.726Z,-1.34
2023-01-26T21:29:43.196Z,-1.32
2023-01-26T21:34:45.688Z,-1.34
2023-01-26T21:39:48.166Z,-1.30
2023-01-26T21:45:10.781Z,-1.40
2023-01-26T21:50:13.448Z,-1.19
2023-01-26T21:55:15.860Z,-1.26
2023-01-26T22:00:18.202Z,-1.21
2023-01-26T22:05:20.619Z,-1.22
2023-01-26T22:10:23.026Z,-1.25
2023-01-26T22:15:25.897Z,-1.37
2023-01-26T22:20:28.268Z,-1.38
2023-01-26T22:25:30.578Z,-1.27
2023-01-26T22:30:32.887Z,-1.39
2023-01-26T22:35:35.196Z,-1.47
2023-01-26T22:40:37.523Z,-1.57
2023-01-26T22:45:39.869Z,-1.55
2023-01-26T22:50:42.161Z,-1.60
2023-01-26T22:55:44.447Z,-1.59
2023-01-26T23:00:46.902Z,-1.62
2023-01-26T23:05:49.308Z,-1.67
2023-01-26T23:10:51.721Z,-1.73
2023-01-26T23:15:54.057Z,-1.75
2023-01-26T23:20:58.348Z,-1.70
2023-01-26T23:26:00.588Z,-1.61
2023-01-26T23:31:02.956Z,-1.58
2023-01-26T23:36:05.320Z,-1.49
2023-01-26T23:41:08.477Z,-1.53
2023-01-26T23:46:10.809Z,-1.37
2023-01-26T23:51:13.327Z,-1.27
2023-01-26T23:56:15.634Z,-1.31
